Avoca, New York
Current Conditions -  °F | °C
As of 9:54 PM on Friday 24 Oct 2014 (Local Time) from KDSV Reporting Station
Clear Clear  
Wind Chill: 38°   Ceiling: Unl
Heat Index: 43°   Visibility: 10mi
Dew Point: 35°   Wind: 8mph
Humidity: 74%   Direction: 160°SSE
Pressure: 29.97"   Gusts: NA
Location:  42.41°N, 77.42°W
Report Text: KDSV 250154Z AUTO 16007KT 10SM CLR 06/02 A2997 RMK AO2 SLP161 T00610017
Loading
Personal Weather Stations






























Interactive Weather Map
Tropical Storm Tracking
New forecast layout! Learn more

10-Day Weather Forecast

Advertisements
Track Severe Weather on mobile